createdAt,value
2022-10-03T00:02:24.923Z,99335.69
2022-10-03T00:05:08.076Z,99332.53
2022-10-03T00:07:51.106Z,99336.78
2022-10-03T00:10:27.176Z,99333.94
2022-10-03T00:12:54.771Z,99337.44
2022-10-03T00:15:26.589Z,99337.44
2022-10-03T00:18:13.140Z,99333.62
2022-10-03T00:21:06.215Z,99336.47
2022-10-03T00:23:49.703Z,99337.75
2022-10-03T00:26:42.405Z,99340.78
2022-10-03T00:29:24.395Z,99335.69
2022-10-03T00:32:24.004Z,99333.31
2022-10-03T00:35:06.045Z,99333.31
2022-10-03T00:37:36.936Z,99345.84
2022-10-03T00:40:07.648Z,99340.09
2022-10-03T00:42:59.023Z,99347.56
2022-10-03T00:45:57.318Z,99342.47
2022-10-03T00:48:48.369Z,99352.44
2022-10-03T00:51:32.362Z,99351.19
2022-10-03T00:54:03.010Z,99334.88
2022-10-03T00:56:53.018Z,99342.34
2022-10-03T00:59:39.168Z,99343.75
2022-10-03T01:02:31.731Z,99353.91
2022-10-03T01:05:23.976Z,99343.63
2022-10-03T01:08:29.122Z,99349.28
2022-10-03T01:11:10.522Z,99362.75
2022-10-03T01:14:02.098Z,99349.75
2022-10-03T01:17:13.277Z,99357.16
2022-10-03T01:19:43.636Z,99357.59
2022-10-03T01:23:08.021Z,99358.19
2022-10-03T01:25:39.639Z,99364.91
2022-10-03T01:28:07.841Z,99354.44
2022-10-03T01:30:44.149Z,99350.22
2022-10-03T01:33:42.431Z,99353.25
2022-10-03T01:36:16.697Z,99354.13
2022-10-03T01:38:51.310Z,99361.19
2022-10-03T01:41:34.086Z,99356.69
2022-10-03T01:44:23.274Z,99353.75
2022-10-03T01:46:55.945Z,99361.22
2022-10-03T01:49:32.648Z,99360.25
2022-10-03T01:52:19.196Z,99365.66
2022-10-03T01:54:59.183Z,99363.59
2022-10-03T01:57:41.851Z,99371.03
2022-10-03T02:00:16.010Z,99356.13
2022-10-03T02:03:04.547Z,99369.13
2022-10-03T02:06:20.156Z,99364.53
2022-10-03T02:09:06.396Z,99370.09
2022-10-03T02:11:52.379Z,99377.22
2022-10-03T02:14:24.430Z,99387.03
2022-10-03T02:17:23.287Z,99388.53
2022-10-03T02:20:06.751Z,99393.38
2022-10-03T02:22:40.093Z,99402.50
2022-10-03T02:25:25.374Z,99404.22
2022-10-03T02:28:11.169Z,99405.81
2022-10-03T02:30:58.000Z,99416.69
2022-10-03T02:33:48.649Z,99425.84
2022-10-03T02:36:54.235Z,99418.66
2022-10-03T02:39:21.814Z,99417.22
2022-10-03T02:42:00.913Z,99416.97
2022-10-03T02:44:46.241Z,99416.34
2022-10-03T02:47:19.842Z,99418.19
2022-10-03T02:50:11.606Z,99415.50
2022-10-03T02:53:09.979Z,99419.94
2022-10-03T02:55:46.573Z,99425.50
2022-10-03T02:58:49.832Z,99422.44
2022-10-03T03:01:36.165Z,99421.13
2022-10-03T03:04:09.682Z,99422.88
2022-10-03T03:07:10.127Z,99427.63
2022-10-03T03:09:56.779Z,99425.19
2022-10-03T03:12:42.892Z,99427.13
2022-10-03T03:15:46.066Z,99428.44
2022-10-03T03:18:29.549Z,99427.13
2022-10-03T03:21:23.395Z,99431.53
2022-10-03T03:24:26.947Z,99433.03
2022-10-03T03:27:19.348Z,99442.56
2022-10-03T03:29:59.139Z,99437.00
2022-10-03T03:32:53.461Z,99440.25
2022-10-03T03:35:41.953Z,99445.66
2022-10-03T03:38:49.211Z,99437.44
2022-10-03T03:41:36.771Z,99436.28
2022-10-03T03:44:36.668Z,99431.06
2022-10-03T03:47:24.978Z,99438.38
2022-10-03T03:50:33.385Z,99438.50
2022-10-03T03:53:34.665Z,99440.16
2022-10-03T03:56:02.468Z,99433.41
2022-10-03T03:58:52.444Z,99444.50
2022-10-03T04:01:29.096Z,99441.25
2022-10-03T04:04:27.545Z,99438.78
2022-10-03T04:07:33.681Z,99451.66
2022-10-03T04:10:39.713Z,99458.50
2022-10-03T04:13:14.582Z,99456.03
2022-10-03T04:15:45.312Z,99457.91
2022-10-03T04:18:12.922Z,99445.44
2022-10-03T04:20:55.648Z,99452.53
2022-10-03T04:23:38.782Z,99442.75
2022-10-03T04:26:23.632Z,99455.00
2022-10-03T04:29:33.429Z,99455.22
2022-10-03T04:32:40.095Z,99451.13
2022-10-03T04:35:46.451Z,99460.59
2022-10-03T04:38:38.786Z,99452.28
2022-10-03T04:41:24.862Z,99456.47
2022-10-03T04:44:22.142Z,99462.41
2022-10-03T04:46:56.199Z,99466.19
2022-10-03T04:49:41.567Z,99465.50
2022-10-03T04:52:19.990Z,99475.59
2022-10-03T04:55:21.401Z,99479.69
2022-10-03T04:58:04.862Z,99481.59
2022-10-03T05:00:59.217Z,99486.19
2022-10-03T05:04:05.005Z,99489.16
2022-10-03T05:06:48.245Z,99506.78
2022-10-03T05:09:49.889Z,99516.91
2022-10-03T05:12:41.794Z,99519.00
2022-10-03T05:15:24.435Z,99528.69
2022-10-03T05:18:10.358Z,99534.84
2022-10-03T05:21:05.975Z,99537.63
2022-10-03T05:24:01.512Z,99545.41
2022-10-03T05:26:45.685Z,99540.81
2022-10-03T05:29:41.340Z,99542.69
2022-10-03T05:32:28.471Z,99539.19
2022-10-03T05:34:59.049Z,99543.47
2022-10-03T05:37:42.720Z,99534.22
2022-10-03T05:40:29.048Z,99528.78
2022-10-03T05:43:02.566Z,99530.91
2022-10-03T05:45:35.747Z,99531.66
2022-10-03T05:48:22.055Z,99514.84
2022-10-03T05:50:58.332Z,99514.88
2022-10-03T05:53:26.151Z,99510.34
2022-10-03T05:56:32.531Z,99504.59
2022-10-03T05:59:12.283Z,99509.69
2022-10-03T06:02:01.309Z,99516.09
2022-10-03T06:04:52.459Z,99524.19
2022-10-03T06:07:29.605Z,99521.56
2022-10-03T06:10:16.244Z,99525.25
2022-10-03T06:13:13.945Z,99526.66
2022-10-03T06:15:57.097Z,99535.28
2022-10-03T06:18:42.935Z,99529.50
2022-10-03T06:21:44.978Z,99530.09
2022-10-03T06:24:12.894Z,99530.53
2022-10-03T06:27:18.365Z,99533.59
2022-10-03T06:30:05.379Z,99543.06
2022-10-03T06:32:51.928Z,99547.41
2022-10-03T06:35:48.253Z,99545.03
2022-10-03T06:38:19.036Z,99552.25
2022-10-03T06:41:05.341Z,99547.50
2022-10-03T06:44:02.440Z,99563.47
2022-10-03T06:46:47.172Z,99558.56
2022-10-03T06:49:42.749Z,99564.03
2022-10-03T06:52:30.162Z,99562.16
2022-10-03T06:55:25.678Z,99561.22
2022-10-03T06:58:22.664Z,99562.59
2022-10-03T07:01:40.859Z,99570.59
2022-10-03T07:04:27.092Z,99569.84
2022-10-03T07:07:32.082Z,99572.94
2022-10-03T07:10:15.084Z,99570.44
2022-10-03T07:12:58.764Z,99568.97
2022-10-03T07:15:57.896Z,99564.13
2022-10-03T07:18:50.164Z,99562.47
2022-10-03T07:21:39.486Z,99575.00
2022-10-03T07:24:30.125Z,99561.78
2022-10-03T07:27:16.107Z,99577.34
2022-10-03T07:29:51.855Z,99574.34
2022-10-03T07:32:37.275Z,99577.88
2022-10-03T07:35:15.071Z,99589.47
2022-10-03T07:38:00.756Z,99588.66
2022-10-03T07:41:13.864Z,99584.06
2022-10-03T07:43:53.753Z,99587.72
2022-10-03T07:47:05.963Z,99590.06
2022-10-03T07:49:54.926Z,99603.75
2022-10-03T07:52:28.677Z,99608.50
2022-10-03T07:55:20.342Z,99613.41
2022-10-03T07:58:12.363Z,99617.69
2022-10-03T08:01:01.605Z,99613.75
2022-10-03T08:03:57.303Z,99620.06
2022-10-03T08:06:38.051Z,99611.66
2022-10-03T08:09:43.259Z,99611.00
2022-10-03T08:12:30.032Z,99613.37
2022-10-03T08:15:03.585Z,99618.97
2022-10-03T08:18:04.771Z,99619.03
2022-10-03T08:20:42.858Z,99616.47
2022-10-03T08:23:57.977Z,99612.50
2022-10-03T08:26:41.257Z,99623.44
2022-10-03T08:29:39.498Z,99618.69
2022-10-03T08:32:21.802Z,99617.19
2022-10-03T08:35:19.601Z,99614.50
2022-10-03T08:38:19.062Z,99612.66
2022-10-03T08:40:46.620Z,99606.22
2022-10-03T08:43:20.444Z,99622.34
2022-10-03T08:45:59.386Z,99605.91
2022-10-03T08:49:03.547Z,99613.16
2022-10-03T08:52:00.309Z,99613.75
2022-10-03T08:55:16.267Z,99611.16
2022-10-03T08:57:56.147Z,99611.03
2022-10-03T09:00:53.201Z,99603.16
2022-10-03T09:03:36.789Z,99608.00
2022-10-03T09:06:19.341Z,99617.50
2022-10-03T09:09:11.323Z,99612.22
2022-10-03T09:12:00.226Z,99613.28
2022-10-03T09:14:49.731Z,99609.16
2022-10-03T09:17:48.573Z,99629.84
2022-10-03T09:20:37.895Z,99625.69
2022-10-03T09:23:30.303Z,99621.25
2022-10-03T09:26:36.153Z,99612.09
2022-10-03T09:29:28.606Z,99616.06
2022-10-03T09:32:05.146Z,99615.88
2022-10-03T09:34:47.592Z,99604.94
2022-10-03T09:37:36.648Z,99622.09
2022-10-03T09:40:41.773Z,99610.94
2022-10-03T09:43:26.796Z,99614.13
2022-10-03T09:46:13.435Z,99616.97
2022-10-03T09:48:59.572Z,99614.81
2022-10-03T09:51:35.944Z,99605.50
2022-10-03T09:54:18.703Z,99612.56
2022-10-03T09:56:52.598Z,99607.91
2022-10-03T09:59:32.000Z,99623.75
2022-10-03T10:02:24.495Z,99613.41
2022-10-03T10:05:07.919Z,99615.81
2022-10-03T10:07:54.453Z,99608.44
2022-10-03T10:10:44.220Z,99610.06
2022-10-03T10:13:12.189Z,99607.81
2022-10-03T10:15:51.657Z,99615.38
2022-10-03T10:18:49.910Z,99615.16
2022-10-03T10:21:20.687Z,99615.69
2022-10-03T10:24:10.177Z,99614.81
2022-10-03T10:27:14.947Z,99625.09
2022-10-03T10:30:10.516Z,99618.22
2022-10-03T10:33:29.071Z,99622.84
2022-10-03T10:36:13.470Z,99605.31
2022-10-03T10:39:01.717Z,99615.28
2022-10-03T10:41:43.845Z,99632.00
2022-10-03T10:44:48.996Z,99623.19
2022-10-03T10:47:41.184Z,99621.47
2022-10-03T10:50:41.868Z,99620.69
2022-10-03T10:53:45.792Z,99611.84
2022-10-03T10:56:35.083Z,99622.06
2022-10-03T10:59:38.285Z,99624.56
2022-10-03T11:02:39.977Z,99620.56
2022-10-03T11:05:38.433Z,99624.22
2022-10-03T11:08:27.569Z,99612.19
2022-10-03T11:11:27.835Z,99611.41
2022-10-03T11:13:58.475Z,99618.88
2022-10-03T11:16:50.938Z,99617.28
2022-10-03T11:19:52.646Z,99616.84
2022-10-03T11:23:01.084Z,99620.78
2022-10-03T11:25:59.506Z,99620.47
2022-10-03T11:29:21.121Z,99620.06
2022-10-03T11:32:22.947Z,99613.69
2022-10-03T11:35:18.420Z,99615.47
2022-10-03T11:38:05.155Z,99623.28
2022-10-03T11:40:42.697Z,99628.25
2022-10-03T11:43:36.865Z,99627.47
2022-10-03T11:46:13.542Z,99630.31
2022-10-03T11:48:59.121Z,99629.13
2022-10-03T11:52:08.697Z,99622.91
2022-10-03T11:54:42.324Z,99622.41
2022-10-03T11:57:20.287Z,99622.09
2022-10-03T11:59:51.142Z,99631.09
2022-10-03T12:02:33.678Z,99642.47
2022-10-03T12:05:15.704Z,99644.09
2022-10-03T12:07:53.067Z,99644.06
2022-10-03T12:10:37.905Z,99644.72
2022-10-03T12:13:11.750Z,99651.50
2022-10-03T12:15:46.688Z,99648.53
2022-10-03T12:18:35.948Z,99651.94
2022-10-03T12:21:08.287Z,99651.91
2022-10-03T12:23:54.761Z,99657.91
2022-10-03T12:26:30.272Z,99651.09
2022-10-03T12:28:59.031Z,99633.34
2022-10-03T12:31:33.773Z,99642.56
2022-10-03T12:34:01.388Z,99646.78
2022-10-03T12:37:08.264Z,99642.53
2022-10-03T12:40:02.786Z,99653.84
2022-10-03T12:43:08.333Z,99637.84
2022-10-03T12:46:09.701Z,99647.59
2022-10-03T12:48:37.525Z,99638.19
2022-10-03T12:51:12.529Z,99641.81
2022-10-03T12:54:02.285Z,99648.06
2022-10-03T12:57:11.751Z,99635.34
2022-10-03T12:59:43.840Z,99631.50
2022-10-03T13:02:27.561Z,99624.75
2022-10-03T13:05:21.851Z,99629.00
2022-10-03T13:07:54.448Z,99631.59
2022-10-03T13:10:40.324Z,99629.59
2022-10-03T13:13:51.127Z,99624.12
2022-10-03T13:16:35.435Z,99618.38
2022-10-03T13:19:09.843Z,99616.09
2022-10-03T13:21:47.422Z,99613.47
2022-10-03T13:24:30.206Z,99613.41
2022-10-03T13:27:04.295Z,99601.41
2022-10-03T13:29:40.659Z,99609.56
2022-10-03T13:32:11.569Z,99604.13
2022-10-03T13:34:57.731Z,99609.12
2022-10-03T13:37:36.858Z,99603.69
2022-10-03T13:40:08.542Z,99594.44
2022-10-03T13:42:44.866Z,99596.19
2022-10-03T13:45:17.973Z,99593.19
2022-10-03T13:47:51.986Z,99596.31
2022-10-03T13:50:26.715Z,99594.66
2022-10-03T13:53:01.780Z,99601.72
2022-10-03T13:55:29.366Z,99597.66
2022-10-03T13:58:25.384Z,99592.97
2022-10-03T14:01:05.211Z,99595.34
2022-10-03T14:04:11.582Z,99594.16
2022-10-03T14:06:45.374Z,99604.13
2022-10-03T14:09:25.016Z,99605.16
2022-10-03T14:12:15.004Z,99602.09
2022-10-03T14:14:52.629Z,99607.03
2022-10-03T14:17:43.761Z,99599.03
2022-10-03T14:20:16.079Z,99606.28
2022-10-03T14:23:21.690Z,99599.41
2022-10-03T14:26:01.890Z,99601.56
2022-10-03T14:28:36.203Z,99597.59
2022-10-03T14:31:13.017Z,99597.25
2022-10-03T14:33:47.091Z,99604.94
2022-10-03T14:36:39.230Z,99603.97
2022-10-03T14:39:28.062Z,99601.12
2022-10-03T14:41:55.917Z,99601.16
2022-10-03T14:44:44.640Z,99615.09
2022-10-03T14:47:14.883Z,99606.63
2022-10-03T14:49:59.076Z,99600.78
2022-10-03T14:52:28.984Z,99604.00
2022-10-03T14:55:00.385Z,99612.16
2022-10-03T14:57:52.976Z,99612.00
2022-10-03T15:00:43.010Z,99611.84
2022-10-03T15:03:17.345Z,99608.78
2022-10-03T15:06:02.184Z,99605.97
2022-10-03T15:08:54.716Z,99596.37
2022-10-03T15:11:27.069Z,99584.88
2022-10-03T15:14:01.831Z,99605.56
2022-10-03T15:16:32.589Z,99604.09
2022-10-03T15:19:08.526Z,99598.00
2022-10-03T15:21:37.425Z,99600.81
2022-10-03T15:24:07.297Z,99603.88
2022-10-03T15:26:36.099Z,99606.53
2022-10-03T15:29:05.835Z,99599.25
2022-10-03T15:31:36.906Z,99598.03
2022-10-03T15:34:07.500Z,99590.31
2022-10-03T15:36:39.114Z,99583.63
2022-10-03T15:39:18.298Z,99577.81
2022-10-03T15:42:04.653Z,99593.62
2022-10-03T15:44:34.247Z,99595.94
2022-10-03T15:47:19.867Z,99593.28
2022-10-03T15:50:05.339Z,99589.47
2022-10-03T15:52:53.001Z,99610.44
2022-10-03T15:55:32.687Z,99609.34
2022-10-03T15:58:12.470Z,99605.19
2022-10-03T16:00:41.465Z,99609.38
2022-10-03T16:03:14.120Z,99620.09
2022-10-03T16:05:51.913Z,99623.38
2022-10-03T16:08:21.832Z,99619.44
2022-10-03T16:11:14.353Z,99616.62
2022-10-03T16:13:46.367Z,99616.09
2022-10-03T16:16:17.443Z,99620.09
2022-10-03T16:19:00.598Z,99614.84
2022-10-03T16:21:37.264Z,99620.22
2022-10-03T16:24:06.195Z,99616.25
2022-10-03T16:26:40.427Z,99622.31
2022-10-03T16:29:19.631Z,99616.12
2022-10-03T16:32:08.491Z,99614.84
2022-10-03T16:34:37.348Z,99606.69
2022-10-03T16:37:16.301Z,99604.63
2022-10-03T16:39:59.014Z,99605.44
2022-10-03T16:42:36.007Z,99607.97
2022-10-03T16:45:04.955Z,99618.28
2022-10-03T16:47:36.210Z,99617.63
2022-10-03T16:50:20.650Z,99618.53
2022-10-03T16:52:50.663Z,99626.59
2022-10-03T16:55:28.473Z,99627.22
2022-10-03T16:58:12.708Z,99635.47
2022-10-03T17:01:14.923Z,99638.78
2022-10-03T17:03:47.827Z,99642.37
2022-10-03T17:06:44.496Z,99634.16
2022-10-03T17:09:39.133Z,99652.50
2022-10-03T17:12:13.784Z,99651.84
2022-10-03T17:14:42.301Z,99643.56
2022-10-03T17:17:41.488Z,99645.81
2022-10-03T17:20:18.921Z,99642.66
2022-10-03T17:22:58.520Z,99651.34
2022-10-03T17:25:50.971Z,99646.09
2022-10-03T17:28:43.823Z,99655.88
2022-10-03T17:31:23.548Z,99656.66
2022-10-03T17:33:57.640Z,99661.03
2022-10-03T17:36:55.878Z,99659.53
2022-10-03T17:39:23.670Z,99658.44
2022-10-03T17:42:00.211Z,99661.75
2022-10-03T17:44:47.730Z,99654.44
2022-10-03T17:47:24.972Z,99652.41
2022-10-03T17:50:01.107Z,99644.75
2022-10-03T17:52:29.679Z,99644.91
2022-10-03T17:55:02.153Z,99654.59
2022-10-03T17:57:33.720Z,99650.91
2022-10-03T18:00:05.608Z,99663.19
2022-10-03T18:02:51.747Z,99662.84
2022-10-03T18:05:24.965Z,99676.03
2022-10-03T18:07:54.676Z,99671.72
2022-10-03T18:10:32.951Z,99676.16
2022-10-03T18:13:02.266Z,99678.97
2022-10-03T18:15:58.513Z,99673.41
2022-10-03T18:18:46.762Z,99675.53
2022-10-03T18:21:24.527Z,99677.97
2022-10-03T18:23:55.786Z,99679.88
2022-10-03T18:26:30.552Z,99680.03
2022-10-03T18:29:29.157Z,99674.94
2022-10-03T18:32:13.294Z,99675.56
2022-10-03T18:35:12.966Z,99681.84
2022-10-03T18:37:40.856Z,99680.25
2022-10-03T18:41:01.445Z,99678.12
2022-10-03T18:43:39.130Z,99679.03
2022-10-03T18:46:22.633Z,99677.25
2022-10-03T18:49:31.508Z,99676.78
2022-10-03T18:51:56.248Z,99676.13
2022-10-03T18:54:56.310Z,99676.91
2022-10-03T18:57:33.720Z,99683.63
2022-10-03T19:00:16.023Z,99678.75
2022-10-03T19:02:55.147Z,99684.72
2022-10-03T19:05:30.989Z,99685.84
2022-10-03T19:08:11.568Z,99682.03
2022-10-03T19:10:46.001Z,99687.84
2022-10-03T19:13:30.160Z,99691.03
2022-10-03T19:16:14.225Z,99689.94
2022-10-03T19:19:03.110Z,99693.69
2022-10-03T19:21:35.756Z,99695.72
2022-10-03T19:24:14.100Z,99708.50
2022-10-03T19:26:47.736Z,99707.19
2022-10-03T19:29:22.389Z,99710.50
2022-10-03T19:31:50.292Z,99721.25
2022-10-03T19:34:22.831Z,99727.22
2022-10-03T19:36:51.966Z,99723.25
2022-10-03T19:39:20.705Z,99730.84
2022-10-03T19:41:54.207Z,99732.50
2022-10-03T19:44:27.558Z,99745.28
2022-10-03T19:47:31.165Z,99746.91
2022-10-03T19:50:12.430Z,99743.09
2022-10-03T19:52:40.160Z,99746.81
2022-10-03T19:55:14.272Z,99739.41
2022-10-03T19:57:58.145Z,99753.25
2022-10-03T20:00:36.493Z,99746.47
2022-10-03T20:03:16.528Z,99744.06
2022-10-03T20:05:52.884Z,99751.22
2022-10-03T20:08:33.153Z,99753.69
2022-10-03T20:11:17.836Z,99758.50
2022-10-03T20:13:47.508Z,99749.69
2022-10-03T20:16:26.103Z,99744.09
2022-10-03T20:19:06.269Z,99744.44
2022-10-03T20:21:34.176Z,99737.88
2022-10-03T20:24:03.585Z,99742.13
2022-10-03T20:26:45.027Z,99736.97
2022-10-03T20:29:32.311Z,99739.66
2022-10-03T20:32:03.609Z,99729.81
2022-10-03T20:34:34.628Z,99728.41
2022-10-03T20:37:17.388Z,99728.59
2022-10-03T20:39:46.175Z,99729.50
2022-10-03T20:42:17.865Z,99733.41
2022-10-03T20:44:45.715Z,99736.78
2022-10-03T20:47:41.156Z,99730.00
2022-10-03T20:50:18.150Z,99729.63
2022-10-03T20:52:59.966Z,99726.03
2022-10-03T20:55:32.358Z,99731.50
2022-10-03T20:58:02.490Z,99726.78
2022-10-03T21:00:30.626Z,99736.38
2022-10-03T21:03:08.186Z,99734.47
2022-10-03T21:05:45.006Z,99728.59
2022-10-03T21:08:12.404Z,99730.88
2022-10-03T21:10:45.598Z,99734.34
2022-10-03T21:13:14.472Z,99738.25
2022-10-03T21:15:56.238Z,99737.56
2022-10-03T21:18:27.469Z,99734.19
2022-10-03T21:21:05.204Z,99726.50
2022-10-03T21:23:56.582Z,99724.72
2022-10-03T21:26:27.083Z,99733.78
2022-10-03T21:29:15.436Z,99729.28
2022-10-03T21:31:55.203Z,99729.69
2022-10-03T21:34:50.851Z,99728.09
2022-10-03T21:38:00.899Z,99736.34
2022-10-03T21:40:50.504Z,99732.47
2022-10-03T21:43:49.512Z,99726.56
2022-10-03T21:46:52.236Z,99742.22
2022-10-03T21:49:38.822Z,99744.22
2022-10-03T21:52:31.293Z,99741.50
2022-10-03T21:55:33.604Z,99748.34
2022-10-03T21:58:30.929Z,99740.28
2022-10-03T22:01:01.982Z,99757.59
2022-10-03T22:03:31.117Z,99753.41
2022-10-03T22:06:02.788Z,99759.91
2022-10-03T22:08:33.406Z,99765.09
2022-10-03T22:11:00.990Z,99756.81
2022-10-03T22:13:30.802Z,99756.91
2022-10-03T22:16:06.038Z,99753.53
2022-10-03T22:18:54.652Z,99761.59
2022-10-03T22:21:25.911Z,99754.72
2022-10-03T22:24:10.765Z,99748.31
2022-10-03T22:27:05.933Z,99747.97
2022-10-03T22:30:08.864Z,99747.31
2022-10-03T22:32:51.720Z,99739.75
2022-10-03T22:35:28.147Z,99733.78
2022-10-03T22:37:56.692Z,99739.00
2022-10-03T22:40:24.807Z,99732.19
2022-10-03T22:42:54.868Z,99736.03
2022-10-03T22:45:25.456Z,99732.66
2022-10-03T22:47:56.084Z,99737.06
2022-10-03T22:50:29.375Z,99736.63
2022-10-03T22:52:58.238Z,99749.63
2022-10-03T22:55:27.089Z,99738.75
2022-10-03T22:57:55.304Z,99740.25
2022-10-03T23:00:29.473Z,99742.66
2022-10-03T23:03:29.514Z,99743.88
2022-10-03T23:06:20.891Z,99750.13
2022-10-03T23:09:08.012Z,99751.31
2022-10-03T23:11:37.001Z,99755.09
2022-10-03T23:14:26.049Z,99754.56
2022-10-03T23:17:15.515Z,99758.28
2022-10-03T23:19:52.723Z,99760.06
2022-10-03T23:22:24.078Z,99770.16
2022-10-03T23:25:01.854Z,99774.94
2022-10-03T23:27:50.570Z,99774.94
2022-10-03T23:30:18.339Z,99775.81
2022-10-03T23:32:48.777Z,99780.78
2022-10-03T23:35:17.515Z,99772.41
2022-10-03T23:37:47.524Z,99778.78
2022-10-03T23:40:27.337Z,99789.66
2022-10-03T23:43:18.450Z,99783.16
2022-10-03T23:45:46.527Z,99782.22
2022-10-03T23:48:16.655Z,99782.56
2022-10-03T23:50:47.411Z,99779.97
2022-10-03T23:53:29.593Z,99780.09
2022-10-03T23:55:59.107Z,99781.94
2022-10-03T23:58:32.636Z,99776.78
